TimeCDT,TemperatureF,Dew PointF,Humidity,Sea Level PressureIn,VisibilityMPH,Wind Direction,Wind SpeedMPH,Gust SpeedMPH,PrecipitationIn,Events,Conditions,WindDirDegrees,DateUTC
12:12 AM,57.6,52.0,82,29.85,7.0,West,10.4,-,N/A,,Scattered Clouds,270,2013-09-20 05:12:00
12:33 AM,57.4,51.8,82,29.85,5.0,West,9.2,-,N/A,,Haze,270,2013-09-20 05:33:00
12:53 AM,56.5,52.2,85,29.85,10.0,West,11.5,-,N/A,Rain,Heavy Rain,270,2013-09-20 05:53:00
1:12 AM,55.9,51.8,86,29.85,7.0,West,11.5,18.4,N/A,Rain,Heavy Rain,270,2013-09-20 06:12:00
1:32 AM,55.2,50.9,85,29.85,10.0,West,6.9,-,N/A,Rain,Heavy Rain,270,2013-09-20 06:32:00
1:53 AM,54.1,50.9,89,29.85,10.0,West,9.2,-,N/A,Rain,Rain,270,2013-09-20 06:53:00
2:12 AM,53.6,50.9,91,29.85,10.0,West,9.2,-,N/A,,Clear,270,2013-09-20 07:12:00
2:33 AM,53.6,50.9,91,29.84,10.0,West,6.9,-,N/A,,Scattered Clouds,270,2013-09-20 07:33:00
2:53 AM,52.9,50.9,93,29.83,10.0,West,6.9,-,N/A,,Clear,260,2013-09-20 07:53:00
3:12 AM,52.7,50.9,94,29.84,10.0,West,5.8,-,N/A,,Scattered Clouds,260,2013-09-20 08:12:00
3:33 AM,54.5,52.2,92,29.83,10.0,West,10.4,17.3,N/A,,Overcast,280,2013-09-20 08:33:00
3:52 AM,55.0,52.0,89,29.84,10.0,West,9.2,-,N/A,,Overcast,270,2013-09-20 08:52:00
4:13 AM,55.4,52.2,89,29.84,10.0,West,8.1,17.3,N/A,,Overcast,280,2013-09-20 09:13:00
4:33 AM,55.4,52.2,89,29.84,10.0,West,6.9,-,N/A,,Overcast,270,2013-09-20 09:33:00
4:52 AM,54.7,52.7,93,29.84,5.0,West,4.6,-,N/A,,Overcast,270,2013-09-20 09:52:00
5:13 AM,54.5,52.9,94,29.84,10.0,West,3.5,-,N/A,,Overcast,260,2013-09-20 10:13:00
5:32 AM,54.5,53.2,96,29.84,4.0,WSW,3.5,-,N/A,,Overcast,250,2013-09-20 10:32:00
5:53 AM,54.5,53.6,97,29.84,4.0,West,5.8,-,N/A,Rain,Light Rain,260,2013-09-20 10:53:00
6:13 AM,54.5,53.6,97,29.84,10.0,WSW,4.6,-,N/A,,Overcast,250,2013-09-20 11:13:00
6:33 AM,54.7,53.8,97,29.84,4.0,West,8.1,-,N/A,Rain,Light Rain,280,2013-09-20 11:33:00
6:53 AM,54.7,53.6,96,29.85,5.0,WNW,10.4,17.3,N/A,,Overcast,290,2013-09-20 11:53:00
7:13 AM,54.5,53.2,96,29.86,7.0,WNW,10.4,18.4,N/A,,Overcast,300,2013-09-20 12:13:00
7:32 AM,54.5,52.7,94,29.87,10.0,WNW,8.1,-,N/A,,Overcast,300,2013-09-20 12:32:00
7:53 AM,54.1,52.2,93,29.87,7.0,WNW,10.4,18.4,N/A,,Overcast,300,2013-09-20 12:53:00
8:13 AM,54.5,52.0,91,29.88,10.0,WNW,8.1,-,N/A,Rain,Light Rain,300,2013-09-20 13:13:00
8:33 AM,54.7,52.0,91,29.88,10.0,WNW,10.4,-,N/A,,Overcast,290,2013-09-20 13:33:00
8:52 AM,54.5,50.5,86,29.89,10.0,NW,11.5,17.3,N/A,,Overcast,310,2013-09-20 13:52:00
9:13 AM,55.0,50.9,86,29.90,10.0,WNW,9.2,19.6,N/A,,Overcast,300,2013-09-20 14:13:00
9:33 AM,55.6,50.5,83,29.90,10.0,WNW,13.8,19.6,N/A,,Overcast,300,2013-09-20 14:33:00
9:52 AM,57.2,50.9,79,29.91,10.0,WNW,10.4,17.3,N/A,,Overcast,290,2013-09-20 14:52:00
10:13 AM,56.8,49.3,76,29.91,10.0,NW,16.1,21.9,N/A,,Overcast,310,2013-09-20 15:13:00
10:32 AM,56.8,49.5,76,29.91,10.0,WNW,11.5,-,N/A,,Overcast,300,2013-09-20 15:32:00
10:53 AM,57.6,48.4,71,29.92,10.0,WNW,15.0,23.0,N/A,,Overcast,290,2013-09-20 15:53:00
11:12 AM,58.3,48.9,71,29.91,10.0,NW,12.7,17.3,N/A,,Overcast,310,2013-09-20 16:12:00
11:33 AM,58.8,48.6,69,29.92,10.0,WNW,11.5,20.7,N/A,,Mostly Cloudy,300,2013-09-20 16:33:00
11:52 AM,59.2,48.6,68,29.92,10.0,WNW,8.1,-,N/A,,Mostly Cloudy,300,2013-09-20 16:52:00
12:13 PM,60.1,47.8,64,29.92,10.0,NW,11.5,19.6,N/A,,Mostly Cloudy,310,2013-09-20 17:13:00
12:33 PM,59.5,47.8,65,29.92,10.0,NW,11.5,21.9,N/A,,Overcast,320,2013-09-20 17:33:00
12:52 PM,59.9,46.8,62,29.92,10.0,WNW,15.0,21.9,N/A,,Mostly Cloudy,300,2013-09-20 17:52:00
1:13 PM,59.5,46.4,62,29.92,10.0,WNW,12.7,19.6,N/A,,Mostly Cloudy,300,2013-09-20 18:13:00
1:33 PM,60.1,48.2,65,29.92,10.0,West,15.0,19.6,N/A,,Overcast,280,2013-09-20 18:33:00
1:53 PM,59.4,48.2,67,29.91,10.0,WNW,13.8,20.7,N/A,,Overcast,290,2013-09-20 18:53:00
2:12 PM,60.1,47.5,63,29.91,10.0,WNW,15.0,21.9,N/A,,Overcast,290,2013-09-20 19:12:00
2:33 PM,55.8,50.2,82,29.91,5.0,WNW,12.7,21.9,N/A,Rain,Light Rain,300,2013-09-20 19:33:00
2:53 PM,55.0,51.1,86,29.91,5.0,West,11.5,19.6,0.01,Rain,Rain,280,2013-09-20 19:53:00
3:12 PM,55.2,50.4,84,29.92,10.0,West,12.7,20.7,N/A,,Overcast,280,2013-09-20 20:12:00
3:33 PM,56.5,50.0,79,29.92,10.0,WNW,18.4,24.2,N/A,,Overcast,290,2013-09-20 20:33:00
3:53 PM,57.2,48.7,73,29.91,10.0,WNW,13.8,23.0,N/A,,Overcast,290,2013-09-20 20:53:00
4:13 PM,57.2,48.2,72,29.92,10.0,WNW,15.0,23.0,N/A,,Mostly Cloudy,290,2013-09-20 21:13:00
4:32 PM,58.1,47.7,68,29.92,10.0,WNW,16.1,21.9,N/A,,Mostly Cloudy,290,2013-09-20 21:32:00
4:53 PM,60.1,46.9,62,29.92,10.0,West,16.1,20.7,N/A,,Overcast,270,2013-09-20 21:53:00
5:12 PM,56.7,46.4,69,29.92,10.0,WNW,11.5,18.4,N/A,,Mostly Cloudy,290,2013-09-20 22:12:00
5:32 PM,55.6,47.7,75,29.93,10.0,NW,9.2,16.1,N/A,,Overcast,320,2013-09-20 22:32:00
5:53 PM,55.4,46.6,72,29.93,10.0,WNW,11.5,19.6,N/A,,Overcast,300,2013-09-20 22:53:00
6:12 PM,54.9,47.3,76,29.93,10.0,NW,10.4,-,N/A,,Overcast,310,2013-09-20 23:12:00
6:32 PM,54.7,46.6,74,29.93,10.0,WNW,9.2,-,N/A,,Overcast,300,2013-09-20 23:32:00
6:53 PM,53.8,46.9,78,29.93,10.0,WNW,8.1,-,N/A,,Overcast,290,2013-09-20 23:53:00
7:12 PM,52.9,47.7,82,29.93,10.0,WNW,5.8,-,N/A,,Mostly Cloudy,290,2013-09-21 00:12:00
7:33 PM,52.3,47.8,85,29.94,10.0,West,6.9,-,N/A,,Overcast,280,2013-09-21 00:33:00
7:53 PM,52.0,47.1,83,29.94,10.0,West,5.8,-,N/A,,Mostly Cloudy,280,2013-09-21 00:53:00
8:12 PM,50.7,46.8,86,29.95,7.0,WNW,3.5,-,N/A,,Scattered Clouds,290,2013-09-21 01:12:00
8:33 PM,50.0,47.1,90,29.95,7.0,Calm,Calm,-,N/A,,Mostly Cloudy,0,2013-09-21 01:33:00
8:52 PM,50.2,47.1,89,29.95,7.0,West,3.5,-,N/A,,Mostly Cloudy,280,2013-09-21 01:52:00
9:13 PM,48.4,46.2,92,29.96,7.0,Calm,Calm,-,N/A,,Scattered Clouds,0,2013-09-21 02:13:00
9:33 PM,47.3,45.5,93,29.96,10.0,Calm,Calm,-,N/A,,Scattered Clouds,0,2013-09-21 02:33:00
9:53 PM,47.8,46.6,95,29.97,10.0,Calm,Calm,-,N/A,,Overcast,0,2013-09-21 02:53:00
10:12 PM,48.6,46.9,94,29.96,10.0,Calm,Calm,-,N/A,,Overcast,0,2013-09-21 03:12:00
10:33 PM,46.9,45.5,95,29.96,10.0,Calm,Calm,-,N/A,,Scattered Clouds,0,2013-09-21 03:33:00
10:52 PM,46.4,45.0,95,29.96,10.0,Calm,Calm,-,N/A,,Clear,0,2013-09-21 03:52:00
11:13 PM,45.1,44.1,96,29.96,7.0,Calm,Calm,-,N/A,,Clear,0,2013-09-21 04:13:00
11:33 PM,44.1,43.2,97,29.96,10.0,Calm,Calm,-,N/A,,Clear,0,2013-09-21 04:33:00
11:53 PM,44.2,43.5,97,29.96,10.0,Calm,Calm,-,N/A,,Clear,0,2013-09-21 04:53:00